createdAt,value
2023-02-22T00:39:15.384Z,97059.53
2023-02-22T00:41:52.473Z,97062.38
2023-02-22T00:45:36.247Z,97061.22
2023-02-22T00:50:32.052Z,97069.09
2023-02-22T00:53:37.984Z,97062.25
2023-02-22T00:56:37.826Z,97061.06
2023-02-22T00:59:11.195Z,97062.13
2023-02-22T01:05:28.501Z,97064.88
2023-02-22T01:11:56.397Z,97073.94
2023-02-22T01:15:02.525Z,97073.72
2023-02-22T01:20:27.697Z,97066.25
2023-02-22T01:33:03.835Z,97072.50
2023-02-22T01:35:44.201Z,97062.38
2023-02-22T01:44:39.794Z,97063.47
2023-02-22T01:47:38.405Z,97067.75
2023-02-22T01:50:11.616Z,97060.63
2023-02-22T01:52:51.925Z,97061.81
2023-02-22T01:55:25.813Z,97064.31
2023-02-22T01:58:18.319Z,97061.56
2023-02-22T02:00:52.951Z,97060.41
2023-02-22T03:28:15.690Z,97079.94
2023-02-22T03:39:08.446Z,97092.19
2023-02-22T03:49:28.012Z,97099.22
2023-02-22T03:56:05.919Z,97092.88
2023-02-22T04:02:09.374Z,97085.25
2023-02-22T04:04:43.890Z,97089.00
2023-02-22T04:07:28.811Z,97090.88
2023-02-22T04:10:52.839Z,97084.00
2023-02-22T04:13:29.398Z,97086.78
2023-02-22T04:15:57.021Z,97086.06
2023-02-22T04:19:00.203Z,97084.59
2023-02-22T04:21:27.922Z,97082.50
2023-02-22T04:23:57.859Z,97086.88
2023-02-22T04:29:29.086Z,97092.53
2023-02-22T04:32:05.913Z,97097.19
2023-02-22T04:37:30.827Z,97086.66
2023-02-22T04:40:16.750Z,97082.91
2023-02-22T04:42:43.633Z,97088.41
2023-02-22T04:45:13.825Z,97080.06
2023-02-22T04:47:41.101Z,97097.44
2023-02-22T04:50:12.322Z,97102.38
2023-02-22T04:52:42.714Z,97086.44
2023-02-22T04:55:11.216Z,97095.63
2023-02-22T04:57:38.264Z,97093.00
2023-02-22T05:00:06.926Z,97101.81
2023-02-22T05:02:39.482Z,97096.84
2023-02-22T05:05:06.828Z,97097.19
2023-02-22T05:07:39.921Z,97107.41
2023-02-22T05:10:07.031Z,97103.22
2023-02-22T05:12:42.926Z,97102.75
2023-02-22T05:15:28.486Z,97107.41
2023-02-22T05:17:55.621Z,97115.66
2023-02-22T05:20:30.954Z,97122.41
2023-02-22T05:27:02.986Z,97123.06
2023-02-22T05:33:21.339Z,97104.50
2023-02-22T05:35:58.823Z,97126.31
2023-02-22T05:39:40.680Z,97130.59
2023-02-22T05:46:10.385Z,97135.63
2023-02-22T05:49:10.492Z,97133.75
2023-02-22T05:52:26.102Z,97128.91
2023-02-22T05:54:53.601Z,97147.09
2023-02-22T05:57:25.977Z,97134.56
2023-02-22T06:04:09.373Z,97154.19
2023-02-22T06:06:36.794Z,97166.44
2023-02-22T06:09:06.922Z,97150.28
2023-02-22T06:13:02.976Z,97161.22
2023-02-22T06:15:33.857Z,97141.63
2023-02-22T06:18:04.004Z,97165.84
2023-02-22T06:20:37.187Z,97170.84
2023-02-22T06:23:10.194Z,97160.59
2023-02-22T06:25:49.619Z,97154.63
2023-02-22T06:28:42.801Z,97167.38
2023-02-22T06:31:10.264Z,97171.81
2023-02-22T06:33:37.484Z,97172.66
2023-02-22T06:36:15.268Z,97155.06
2023-02-22T06:38:42.140Z,97166.66
2023-02-22T06:41:27.825Z,97167.94
2023-02-22T06:44:01.169Z,97165.09
2023-02-22T06:46:28.065Z,97176.47
2023-02-22T06:48:55.657Z,97159.41
2023-02-22T06:51:23.270Z,97155.66
2023-02-22T06:53:50.186Z,97144.91
2023-02-22T06:56:17.184Z,97144.78
2023-02-22T06:59:10.227Z,97139.66
2023-02-22T07:02:00.130Z,97151.88
2023-02-22T07:04:26.901Z,97153.81
2023-02-22T07:06:57.373Z,97139.13
2023-02-22T07:09:24.145Z,97150.88
2023-02-22T07:11:51.759Z,97153.28
2023-02-22T07:14:31.957Z,97149.47
2023-02-22T07:20:08.692Z,97131.28
2023-02-22T07:25:38.998Z,97122.19
2023-02-22T07:28:18.135Z,97109.31
2023-02-22T07:30:48.473Z,97116.78
2023-02-22T07:33:21.497Z,97115.44
2023-02-22T07:35:50.904Z,97113.97
2023-02-22T07:38:26.409Z,97114.50
2023-02-22T07:41:07.969Z,97118.97
2023-02-22T07:44:13.377Z,97109.06
2023-02-22T07:46:40.318Z,97105.50
2023-02-22T07:49:10.449Z,97107.38
2023-02-22T07:51:38.654Z,97098.66
2023-02-22T07:54:07.652Z,97098.53
2023-02-22T07:56:37.685Z,97104.13
2023-02-22T07:59:12.868Z,97107.47
2023-02-22T08:01:40.141Z,97106.63
2023-02-22T08:04:28.683Z,97103.44
2023-02-22T08:06:58.258Z,97097.28
2023-02-22T08:09:32.869Z,97100.28
2023-02-22T08:11:59.700Z,97099.47
2023-02-22T08:14:26.497Z,97087.84
2023-02-22T08:16:56.068Z,97089.97
2023-02-22T08:19:23.077Z,97092.44
2023-02-22T08:21:58.982Z,97090.28
2023-02-22T08:24:25.909Z,97099.56
2023-02-22T08:26:56.737Z,97098.38
2023-02-22T08:29:35.881Z,97081.47
2023-02-22T08:32:11.090Z,97084.75
2023-02-22T08:34:41.772Z,97092.31
2023-02-22T08:45:07.279Z,97087.25
2023-02-22T08:47:57.778Z,97099.94
2023-02-22T08:50:47.129Z,97103.81
2023-02-22T08:53:24.474Z,97096.66
2023-02-22T08:58:55.043Z,97078.38
2023-02-22T09:01:37.076Z,97091.75
2023-02-22T09:04:05.691Z,97086.06
2023-02-22T09:07:00.212Z,97098.09
2023-02-22T09:09:32.354Z,97070.00
2023-02-22T09:12:10.825Z,97096.59
2023-02-22T09:14:37.909Z,97093.47
2023-02-22T09:17:17.746Z,97095.25
2023-02-22T09:19:48.795Z,97098.31
2023-02-22T09:22:18.104Z,97097.03
2023-02-22T09:24:51.390Z,97095.34
2023-02-22T09:27:22.576Z,97095.66
2023-02-22T09:29:53.268Z,97103.00
2023-02-22T09:32:20.780Z,97089.47
2023-02-22T09:34:56.541Z,97099.78
2023-02-22T09:37:24.159Z,97091.19
2023-02-22T09:39:54.312Z,97090.84
2023-02-22T09:42:36.749Z,97086.13
2023-02-22T09:45:18.824Z,97074.59
2023-02-22T09:47:57.652Z,97068.00
2023-02-22T09:50:59.185Z,97086.03
2023-02-22T09:53:51.254Z,97086.38
2023-02-22T09:56:31.024Z,97087.50
2023-02-22T09:59:07.531Z,97046.19
2023-02-22T10:01:51.097Z,97068.34
2023-02-22T10:04:56.171Z,97066.81
2023-02-22T10:07:57.811Z,97071.25
2023-02-22T10:11:08.469Z,97075.09
2023-02-22T10:13:58.150Z,97062.19
2023-02-22T10:16:40.648Z,97069.06
2023-02-22T10:19:46.882Z,97052.75
2023-02-22T10:22:37.626Z,97057.72
2023-02-22T10:25:13.960Z,97049.28
2023-02-22T10:28:01.073Z,97043.59
2023-02-22T10:30:36.999Z,97043.31
2023-02-22T10:33:26.826Z,97041.19
2023-02-22T10:35:56.677Z,97025.25
2023-02-22T10:38:24.783Z,97025.59
2023-02-22T10:41:24.290Z,97015.69
2023-02-22T10:44:00.592Z,97031.22
2023-02-22T10:46:34.562Z,97015.53
2023-02-22T10:49:10.150Z,97005.44
2023-02-22T10:51:59.659Z,97004.03
2023-02-22T10:54:34.003Z,97001.19
2023-02-22T10:57:09.999Z,97005.41
2023-02-22T10:59:47.868Z,96998.25
2023-02-22T11:02:33.368Z,96996.41
2023-02-22T11:05:04.774Z,96988.22
2023-02-22T11:07:41.083Z,96981.72
2023-02-22T11:10:10.084Z,96980.69
2023-02-22T11:12:48.745Z,96987.03
2023-02-22T11:15:34.263Z,96975.53
2023-02-22T11:18:07.513Z,96968.00
2023-02-22T11:20:43.303Z,96969.47
2023-02-22T11:23:10.934Z,96975.78
2023-02-22T11:25:43.927Z,96965.41
2023-02-22T11:28:31.366Z,96974.41
2023-02-22T11:30:59.724Z,96967.69
2023-02-22T11:33:29.717Z,96963.94
2023-02-22T11:39:01.777Z,96964.75
2023-02-22T11:41:35.918Z,96962.06
2023-02-22T11:44:28.781Z,96959.63
2023-02-22T11:47:16.153Z,96956.38
2023-02-22T11:49:47.635Z,96951.72
2023-02-22T11:52:28.861Z,96952.47
2023-02-22T11:55:36.329Z,96954.00
2023-02-22T11:58:33.533Z,96948.41
2023-02-22T12:01:33.816Z,96956.25
2023-02-22T12:04:29.782Z,96950.19
2023-02-22T12:07:20.667Z,96951.97
2023-02-22T12:10:15.176Z,96944.44
2023-02-22T12:13:02.107Z,96952.19
2023-02-22T12:15:42.774Z,96943.91
2023-02-22T12:18:26.226Z,96943.75
2023-02-22T12:25:38.230Z,96940.81
2023-02-22T12:28:24.262Z,96951.81
2023-02-22T12:31:17.285Z,96940.13
2023-02-22T12:34:00.782Z,96933.97
2023-02-22T12:36:40.537Z,96943.81
2023-02-22T12:39:52.327Z,96936.91
2023-02-22T12:43:03.954Z,96941.25
2023-02-22T12:45:47.878Z,96942.88
2023-02-22T12:48:36.480Z,96929.41
2023-02-22T12:51:31.581Z,96942.22
2023-02-22T12:54:22.581Z,96940.88
2023-02-22T12:56:59.193Z,96938.97
2023-02-22T13:03:18.373Z,96938.88
2023-02-22T13:05:55.620Z,96944.22
2023-02-22T13:08:52.703Z,96946.34
2023-02-22T13:11:57.362Z,96945.97
2023-02-22T13:14:59.257Z,96933.56
2023-02-22T13:17:56.020Z,96933.31
2023-02-22T13:20:53.857Z,96937.47
2023-02-22T13:23:26.991Z,96941.13
2023-02-22T13:25:58.252Z,96941.13
2023-02-22T13:29:27.635Z,96940.06
2023-02-22T13:32:55.745Z,96939.09
2023-02-22T13:35:35.451Z,96946.09
2023-02-22T13:39:14.817Z,96938.78
2023-02-22T13:41:56.369Z,96925.38
2023-02-22T13:45:09.696Z,96935.25
2023-02-22T13:49:20.491Z,96943.13
2023-02-22T13:51:47.351Z,96945.63
2023-02-22T13:54:53.851Z,96941.84
2023-02-22T14:00:54.329Z,96938.94
2023-02-22T14:10:37.942Z,96938.25
2023-02-22T14:21:25.520Z,96959.41
2023-02-22T14:24:35.799Z,96960.53
2023-02-22T14:30:02.007Z,96955.22
2023-02-22T14:35:58.257Z,96958.50
2023-02-22T14:38:31.736Z,96954.91
2023-02-22T14:41:42.445Z,96960.41
2023-02-22T14:44:43.430Z,96967.38
2023-02-22T14:48:42.585Z,96949.88
2023-02-22T14:51:58.805Z,96951.88
2023-02-22T14:54:46.718Z,96951.38
2023-02-22T14:57:27.416Z,96952.91
2023-02-22T15:00:31.560Z,96949.44
2023-02-22T15:03:02.058Z,96951.16
2023-02-22T15:05:41.580Z,96955.31
2023-02-22T15:08:09.601Z,96958.13
2023-02-22T15:10:45.878Z,96958.66
2023-02-22T15:13:33.225Z,96959.19
2023-02-22T15:16:08.245Z,96961.38
2023-02-22T15:18:43.651Z,96962.41
2023-02-22T15:24:08.409Z,96961.94
2023-02-22T15:27:01.123Z,96956.03
2023-02-22T15:29:44.917Z,96972.06
2023-02-22T15:32:36.929Z,96969.84
2023-02-22T15:35:43.942Z,96965.97
2023-02-22T15:38:14.624Z,96968.69
2023-02-22T15:40:46.282Z,96983.63
2023-02-22T15:43:24.339Z,96979.00
2023-02-22T15:45:52.468Z,96973.13
2023-02-22T15:48:26.115Z,96980.75
2023-02-22T15:51:14.099Z,96980.75
2023-02-22T15:54:02.392Z,96976.09
2023-02-22T15:59:20.968Z,96987.56
2023-02-22T16:01:51.716Z,96991.13
2023-02-22T16:04:28.369Z,96986.41
2023-02-22T16:07:07.188Z,97002.63
2023-02-22T16:09:35.396Z,96997.41
2023-02-22T16:12:49.442Z,96995.22
2023-02-22T16:15:39.246Z,97004.25
2023-02-22T16:18:48.212Z,97007.66
2023-02-22T16:21:27.624Z,97009.91
2023-02-22T16:24:13.894Z,97008.88
2023-02-22T16:27:34.834Z,97008.50
2023-02-22T16:30:46.108Z,97019.41
2023-02-22T16:33:22.678Z,97016.16
2023-02-22T16:35:57.509Z,97020.06
2023-02-22T16:38:36.251Z,97019.69
2023-02-22T16:45:50.874Z,97037.13
2023-02-22T17:04:00.907Z,97058.09
2023-02-22T17:11:22.561Z,97064.56
2023-02-22T17:24:18.984Z,97081.09
2023-02-22T17:27:44.673Z,97087.13
2023-02-22T17:30:14.108Z,97088.19
2023-02-22T17:33:21.152Z,97094.19
2023-02-22T17:36:05.751Z,97091.34
2023-02-22T17:50:33.629Z,97097.31
2023-02-22T18:05:07.521Z,97092.97
2023-02-22T18:07:35.084Z,97086.56
2023-02-22T18:10:46.273Z,97090.00
2023-02-22T18:13:19.362Z,97089.41
2023-02-22T18:15:49.528Z,97088.22
2023-02-22T18:18:23.347Z,97090.38
2023-02-22T18:23:47.768Z,97091.28
2023-02-22T18:26:30.712Z,97095.56
2023-02-22T18:29:13.106Z,97094.84
2023-02-22T18:31:47.837Z,97094.84
2023-02-22T18:34:18.040Z,97103.88
2023-02-22T18:36:45.278Z,97099.94
2023-02-22T18:40:08.787Z,97106.25
2023-02-22T18:47:33.652Z,97102.41
2023-02-22T18:50:00.857Z,97102.25
2023-02-22T18:52:55.280Z,97102.94
2023-02-22T18:58:54.371Z,97099.38
2023-02-22T19:14:39.311Z,97108.19
2023-02-22T19:23:34.928Z,97116.78
2023-02-22T19:26:10.045Z,97119.75
2023-02-22T19:28:37.817Z,97120.13
2023-02-22T19:31:20.938Z,97125.47
2023-02-22T19:33:52.884Z,97121.94
2023-02-22T19:36:23.278Z,97130.66
2023-02-22T19:46:15.171Z,97123.47
2023-02-22T19:52:25.424Z,97122.47
2023-02-22T19:58:26.870Z,97121.63
2023-02-22T20:05:41.775Z,97136.47
2023-02-22T20:08:39.577Z,97125.72
2023-02-22T20:18:35.162Z,97136.69
2023-02-22T20:22:09.949Z,97143.97
2023-02-22T20:26:05.067Z,97137.69
2023-02-22T21:15:56.150Z,97139.75
2023-02-22T21:34:07.938Z,97139.47
2023-02-22T21:36:42.094Z,97144.88
2023-02-22T21:39:39.454Z,97138.00
2023-02-22T21:42:36.242Z,97129.44
2023-02-22T21:50:15.302Z,97108.16
2023-02-22T22:03:35.679Z,97131.44
2023-02-22T22:18:00.511Z,97144.28
2023-02-22T22:51:49.649Z,97144.22
2023-02-22T22:54:22.995Z,97143.31
2023-02-22T22:57:09.676Z,97144.88
2023-02-22T23:06:36.314Z,97146.09
2023-02-22T23:09:26.420Z,97150.47
2023-02-22T23:12:31.192Z,97140.63
2023-02-22T23:15:21.337Z,97138.78
2023-02-22T23:17:48.565Z,97133.94
2023-02-22T23:20:39.633Z,97132.63
2023-02-22T23:26:50.424Z,97132.28
2023-02-22T23:29:28.712Z,97133.47
2023-02-22T23:31:56.404Z,97130.22
2023-02-22T23:38:26.709Z,97134.59
2023-02-22T23:41:15.100Z,97128.56
